createdAt,value
2022-08-24T00:01:56.227Z,101707.28
2022-08-24T00:04:26.095Z,101707.97
2022-08-24T00:06:54.191Z,101713.41
2022-08-24T00:09:22.337Z,101698.09
2022-08-24T00:11:50.318Z,101702.16
2022-08-24T00:14:18.766Z,101712.38
2022-08-24T00:16:47.304Z,101720.38
2022-08-24T00:19:16.253Z,101717.66
2022-08-24T00:21:45.517Z,101718.44
2022-08-24T00:24:14.634Z,101715.19
2022-08-24T00:26:42.622Z,101723.03
2022-08-24T00:29:10.861Z,101717.25
2022-08-24T00:31:38.779Z,101718.13
2022-08-24T00:34:07.849Z,101723.19
2022-08-24T00:36:36.257Z,101720.47
2022-08-24T00:39:06.346Z,101714.66
2022-08-24T00:41:34.621Z,101720.88
2022-08-24T00:44:04.917Z,101715.13
2022-08-24T00:46:43.512Z,101725.22
2022-08-24T00:49:19.423Z,101723.88
2022-08-24T00:51:55.605Z,101725.97
2022-08-24T00:54:28.025Z,101725.69
2022-08-24T00:57:00.090Z,101718.16
2022-08-24T00:59:32.652Z,101723.13
2022-08-24T01:02:14.310Z,101722.56
2022-08-24T01:04:46.467Z,101726.00
2022-08-24T01:07:14.426Z,101723.44
2022-08-24T01:09:43.737Z,101711.56
2022-08-24T01:12:12.039Z,101717.38
2022-08-24T01:14:40.192Z,101713.50
2022-08-24T01:17:26.122Z,101712.78
2022-08-24T01:19:58.418Z,101712.63
2022-08-24T01:22:43.982Z,101715.88
2022-08-24T01:25:13.259Z,101711.09
2022-08-24T01:27:42.598Z,101719.44
2022-08-24T01:30:15.724Z,101722.81
2022-08-24T01:32:54.659Z,101724.84
2022-08-24T01:35:22.955Z,101726.41
2022-08-24T01:37:52.694Z,101718.91
2022-08-24T01:40:22.929Z,101726.22
2022-08-24T01:42:52.560Z,101728.25
2022-08-24T01:45:22.739Z,101728.09
2022-08-24T01:47:50.829Z,101727.78
2022-08-24T01:50:18.844Z,101730.97
2022-08-24T01:53:04.464Z,101735.72
2022-08-24T01:55:35.493Z,101735.78
2022-08-24T01:58:04.376Z,101732.34
2022-08-24T02:00:33.381Z,101733.31
2022-08-24T02:03:01.584Z,101736.06
2022-08-24T02:05:29.719Z,101737.22
2022-08-24T02:07:59.290Z,101742.53
2022-08-24T02:10:27.534Z,101744.22
2022-08-24T02:12:59.028Z,101741.69
2022-08-24T02:15:29.800Z,101744.41
2022-08-24T02:17:58.825Z,101742.88
2022-08-24T02:20:27.840Z,101751.19
2022-08-24T02:22:58.104Z,101748.88
2022-08-24T02:25:27.616Z,101743.50
2022-08-24T02:27:57.853Z,101746.94
2022-08-24T02:30:26.637Z,101744.44
2022-08-24T02:32:54.508Z,101739.28
2022-08-24T02:35:23.449Z,101739.91
2022-08-24T02:37:52.189Z,101735.91
2022-08-24T02:40:20.899Z,101744.97
2022-08-24T02:42:50.790Z,101742.03
2022-08-24T02:45:20.633Z,101733.88
2022-08-24T02:47:49.279Z,101728.03
2022-08-24T02:50:18.806Z,101731.44
2022-08-24T02:52:47.106Z,101732.31
2022-08-24T02:55:19.971Z,101730.91
2022-08-24T02:57:50.565Z,101732.00
2022-08-24T03:00:22.417Z,101725.22
2022-08-24T03:02:54.769Z,101724.25
2022-08-24T03:05:25.021Z,101725.06
2022-08-24T03:07:53.230Z,101724.22
2022-08-24T03:10:22.199Z,101723.19
2022-08-24T03:12:50.758Z,101727.78
2022-08-24T03:15:23.232Z,101722.81
2022-08-24T03:17:52.424Z,101725.56
2022-08-24T03:20:23.961Z,101721.81
2022-08-24T03:22:53.217Z,101725.88
2022-08-24T03:25:24.703Z,101729.59
2022-08-24T03:27:53.273Z,101723.13
2022-08-24T03:30:23.822Z,101730.47
2022-08-24T03:32:52.188Z,101734.63
2022-08-24T03:35:21.840Z,101739.72
2022-08-24T03:37:50.555Z,101734.88
2022-08-24T03:40:23.172Z,101734.53
2022-08-24T03:42:55.499Z,101725.56
2022-08-24T03:45:25.119Z,101732.25
2022-08-24T03:47:53.774Z,101728.56
2022-08-24T03:50:22.929Z,101732.03
2022-08-24T03:52:51.040Z,101732.91
2022-08-24T03:55:19.513Z,101728.38
2022-08-24T03:57:48.471Z,101735.44
2022-08-24T04:00:17.500Z,101736.84
2022-08-24T04:02:56.525Z,101746.56
2022-08-24T04:07:54.543Z,101752.31
2022-08-24T04:10:22.526Z,101748.41
2022-08-24T04:12:50.445Z,101758.59
2022-08-24T04:15:24.432Z,101752.38
2022-08-24T04:17:52.783Z,101754.72
2022-08-24T04:20:22.815Z,101753.94
2022-08-24T04:22:53.577Z,101755.66
2022-08-24T04:25:25.150Z,101756.34
2022-08-24T04:27:53.449Z,101763.50
2022-08-24T04:30:23.500Z,101753.09
2022-08-24T04:33:11.229Z,101754.19
2022-08-24T04:35:43.212Z,101754.69
2022-08-24T04:38:11.603Z,101760.13
2022-08-24T04:40:46.944Z,101756.94
2022-08-24T04:43:19.930Z,101772.63
2022-08-24T04:45:51.215Z,101770.75
2022-08-24T04:48:21.159Z,101762.59
2022-08-24T04:50:50.498Z,101767.03
2022-08-24T04:53:18.821Z,101767.56
2022-08-24T04:55:51.132Z,101771.25
2022-08-24T04:58:20.353Z,101771.09
2022-08-24T05:00:48.921Z,101778.91
2022-08-24T05:03:17.008Z,101771.53
2022-08-24T05:08:20.170Z,101780.31
2022-08-24T05:10:50.558Z,101781.31
2022-08-24T05:13:19.311Z,101787.47
2022-08-24T05:15:49.119Z,101790.91
2022-08-24T05:18:18.173Z,101792.59
2022-08-24T05:20:47.938Z,101801.03
2022-08-24T05:23:16.317Z,101802.06
2022-08-24T05:25:45.743Z,101802.16
2022-08-24T05:28:13.643Z,101807.44
2022-08-24T05:30:42.889Z,101807.84
2022-08-24T05:33:11.632Z,101810.81
2022-08-24T05:35:43.677Z,101805.13
2022-08-24T05:38:12.259Z,101811.16
2022-08-24T05:40:41.276Z,101805.31
2022-08-24T05:43:11.172Z,101808.34
2022-08-24T05:45:42.819Z,101809.41
2022-08-24T05:48:11.765Z,101797.69
2022-08-24T05:51:15.156Z,101808.34
2022-08-24T05:53:53.148Z,101810.53
2022-08-24T05:56:23.200Z,101811.16
2022-08-24T05:58:52.522Z,101809.88
2022-08-24T06:01:23.509Z,101820.72
2022-08-24T06:03:53.961Z,101824.34
2022-08-24T06:06:23.311Z,101817.91
2022-08-24T06:08:55.071Z,101817.19
2022-08-24T06:11:30.176Z,101826.09
2022-08-24T06:14:07.197Z,101818.75
2022-08-24T06:16:40.480Z,101829.50
2022-08-24T06:19:13.155Z,101815.03
2022-08-24T06:21:41.497Z,101823.63
2022-08-24T06:24:09.833Z,101816.94
2022-08-24T06:26:55.209Z,101819.81
2022-08-24T06:29:24.488Z,101818.88
2022-08-24T06:31:57.403Z,101822.66
2022-08-24T06:34:27.061Z,101828.28
2022-08-24T06:36:55.212Z,101827.63
2022-08-24T06:39:25.598Z,101832.25
2022-08-24T06:41:55.979Z,101829.53
2022-08-24T06:44:33.321Z,101828.59
2022-08-24T06:47:18.759Z,101831.50
2022-08-24T06:49:47.344Z,101837.78
2022-08-24T06:52:15.377Z,101833.88
2022-08-24T06:54:43.793Z,101835.34
2022-08-24T06:57:11.884Z,101852.41
2022-08-24T06:59:43.136Z,101849.16
2022-08-24T07:02:12.968Z,101839.09
2022-08-24T07:04:41.184Z,101849.47
2022-08-24T07:07:27.545Z,101854.22
2022-08-24T07:09:55.426Z,101856.09
2022-08-24T07:12:23.935Z,101856.81
2022-08-24T07:14:54.269Z,101856.47
2022-08-24T07:17:23.222Z,101849.66
2022-08-24T07:19:51.354Z,101839.66
2022-08-24T07:22:39.378Z,101843.19
2022-08-24T07:25:08.465Z,101843.22
2022-08-24T07:27:37.000Z,101851.41
2022-08-24T07:30:26.469Z,101847.28
2022-08-24T07:32:57.851Z,101858.53
2022-08-24T07:35:28.231Z,101855.50
2022-08-24T07:37:56.509Z,101864.50
2022-08-24T07:40:25.290Z,101866.38
2022-08-24T07:42:55.159Z,101855.47
2022-08-24T07:45:26.218Z,101867.75
2022-08-24T07:47:56.015Z,101862.66
2022-08-24T07:50:38.252Z,101859.25
2022-08-24T07:53:09.822Z,101861.44
2022-08-24T07:55:45.810Z,101862.63
2022-08-24T07:58:14.770Z,101856.75
2022-08-24T08:00:47.516Z,101869.50
2022-08-24T08:03:15.932Z,101867.78
2022-08-24T08:05:45.484Z,101867.78
2022-08-24T08:08:13.638Z,101882.78
2022-08-24T08:10:42.335Z,101879.34
2022-08-24T08:13:10.569Z,101874.19
2022-08-24T08:15:39.479Z,101879.16
2022-08-24T08:18:12.548Z,101869.06
2022-08-24T08:20:43.440Z,101865.19
2022-08-24T08:23:30.505Z,101867.06
2022-08-24T08:26:16.981Z,101864.81
2022-08-24T08:29:05.308Z,101870.25
2022-08-24T08:31:37.746Z,101868.03
2022-08-24T08:34:08.689Z,101861.78
2022-08-24T08:36:39.580Z,101872.41
2022-08-24T08:39:09.109Z,101876.75
2022-08-24T08:42:13.253Z,101872.25
2022-08-24T08:45:08.273Z,101871.53
2022-08-24T08:47:58.900Z,101873.84
2022-08-24T08:50:34.837Z,101880.16
2022-08-24T08:53:45.433Z,101881.13
2022-08-24T08:56:23.988Z,101892.97
2022-08-24T08:59:04.216Z,101873.78
2022-08-24T09:01:52.725Z,101880.84
2022-08-24T09:05:05.264Z,101880.19
2022-08-24T09:07:46.030Z,101886.44
2022-08-24T09:10:35.625Z,101880.56
2022-08-24T09:13:19.074Z,101875.69
2022-08-24T09:16:10.859Z,101884.38
2022-08-24T09:18:55.672Z,101876.16
2022-08-24T09:21:39.616Z,101887.38
2022-08-24T09:24:25.768Z,101879.53
2022-08-24T09:27:11.441Z,101874.34
2022-08-24T09:29:53.719Z,101880.19
2022-08-24T09:32:51.367Z,101888.25
2022-08-24T09:35:27.180Z,101886.09
2022-08-24T09:38:01.877Z,101884.28
2022-08-24T09:40:38.451Z,101884.13
2022-08-24T09:43:59.243Z,101888.91
2022-08-24T09:47:13.741Z,101880.97
2022-08-24T09:50:07.040Z,101878.38
2022-08-24T09:53:09.180Z,101885.44
2022-08-24T09:56:02.513Z,101877.25
2022-08-24T09:58:46.158Z,101875.56
2022-08-24T10:01:27.764Z,101874.97
2022-08-24T10:04:11.297Z,101882.59
2022-08-24T10:06:44.608Z,101868.47
2022-08-24T10:09:33.998Z,101875.78
2022-08-24T10:12:14.980Z,101869.44
2022-08-24T10:14:54.555Z,101865.00
2022-08-24T10:17:35.191Z,101872.63
2022-08-24T10:20:15.244Z,101865.28
2022-08-24T10:23:16.417Z,101868.91
2022-08-24T10:25:55.529Z,101861.09
2022-08-24T10:28:42.014Z,101860.22
2022-08-24T10:31:13.138Z,101863.94
2022-08-24T10:33:57.204Z,101857.22
2022-08-24T10:36:45.527Z,101862.22
2022-08-24T10:39:41.611Z,101853.19
2022-08-24T10:42:48.003Z,101836.94
2022-08-24T10:45:48.025Z,101835.13
2022-08-24T10:48:43.492Z,101822.50
2022-08-24T10:51:25.485Z,101822.50
2022-08-24T10:53:55.397Z,101832.22
2022-08-24T10:56:43.901Z,101822.91
2022-08-24T10:59:23.316Z,101822.13
2022-08-24T11:02:12.815Z,101831.88
2022-08-24T11:04:41.667Z,101829.09
2022-08-24T11:07:17.791Z,101825.34
2022-08-24T11:09:51.584Z,101835.00
2022-08-24T11:12:27.237Z,101836.25
2022-08-24T11:14:58.004Z,101829.28
2022-08-24T11:17:29.545Z,101828.47
2022-08-24T11:19:59.261Z,101829.63
2022-08-24T11:22:40.728Z,101833.06
2022-08-24T11:25:16.033Z,101827.69
2022-08-24T11:27:47.289Z,101833.56
2022-08-24T11:30:27.356Z,101831.53
2022-08-24T11:32:59.057Z,101823.78
2022-08-24T11:35:29.382Z,101826.69
2022-08-24T11:38:07.727Z,101815.31
2022-08-24T11:40:40.944Z,101817.41
2022-08-24T11:43:27.455Z,101808.84
2022-08-24T11:46:07.931Z,101811.91
2022-08-24T11:48:49.306Z,101812.13
2022-08-24T11:51:28.514Z,101806.72
2022-08-24T11:54:06.201Z,101807.19
2022-08-24T11:56:42.211Z,101796.84
2022-08-24T11:59:19.085Z,101803.13
2022-08-24T12:01:52.534Z,101796.25
2022-08-24T12:04:37.314Z,101799.47
2022-08-24T12:07:16.770Z,101806.63
2022-08-24T12:09:58.482Z,101803.91
2022-08-24T12:12:36.764Z,101793.56
2022-08-24T12:15:12.041Z,101791.53
2022-08-24T12:17:46.634Z,101798.78
2022-08-24T12:20:27.641Z,101791.78
2022-08-24T12:23:00.889Z,101791.84
2022-08-24T12:25:49.120Z,101783.94
2022-08-24T12:28:24.517Z,101786.94
2022-08-24T12:30:56.025Z,101781.78
2022-08-24T12:33:32.222Z,101784.19
2022-08-24T12:36:18.691Z,101785.50
2022-08-24T12:38:50.876Z,101769.09
2022-08-24T12:41:22.317Z,101773.63
2022-08-24T12:43:54.709Z,101774.88
2022-08-24T12:46:25.212Z,101772.56
2022-08-24T12:48:57.913Z,101771.44
2022-08-24T12:51:38.861Z,101762.94
2022-08-24T12:54:24.853Z,101754.75
2022-08-24T12:57:09.022Z,101742.16
2022-08-24T12:59:41.052Z,101760.66
2022-08-24T13:02:28.249Z,101760.47
2022-08-24T13:05:01.589Z,101762.94
2022-08-24T13:07:39.121Z,101766.28
2022-08-24T13:10:13.419Z,101765.31
2022-08-24T13:13:09.375Z,101772.53
2022-08-24T13:16:03.155Z,101768.31
2022-08-24T13:18:54.549Z,101766.38
2022-08-24T13:21:48.388Z,101772.91
2022-08-24T13:24:59.530Z,101768.97
2022-08-24T13:28:12.212Z,101775.06
2022-08-24T13:31:05.644Z,101775.19
2022-08-24T13:33:40.416Z,101762.72
2022-08-24T13:36:31.168Z,101762.88
2022-08-24T13:39:09.110Z,101766.44
2022-08-24T13:42:10.757Z,101766.41
2022-08-24T13:44:57.765Z,101768.66
2022-08-24T13:47:32.523Z,101759.81
2022-08-24T13:50:10.943Z,101759.00
2022-08-24T13:52:48.908Z,101760.69
2022-08-24T13:55:42.609Z,101760.91
2022-08-24T13:58:27.006Z,101751.38
2022-08-24T14:01:02.000Z,101759.31
2022-08-24T14:04:02.237Z,101742.00
2022-08-24T14:06:36.363Z,101746.16
2022-08-24T14:09:22.944Z,101745.53
2022-08-24T14:12:12.851Z,101748.88
2022-08-24T14:14:58.426Z,101744.03
2022-08-24T14:17:53.834Z,101751.47
2022-08-24T14:20:43.758Z,101747.13
2022-08-24T14:23:26.290Z,101748.66
2022-08-24T14:26:36.795Z,101749.22
2022-08-24T14:29:29.059Z,101752.88
2022-08-24T14:32:33.350Z,101750.06
2022-08-24T14:35:16.973Z,101756.63
2022-08-24T14:37:57.103Z,101764.06
2022-08-24T14:40:35.182Z,101755.41
2022-08-24T14:43:28.580Z,101760.66
2022-08-24T14:46:07.144Z,101758.31
2022-08-24T14:48:46.623Z,101753.44
2022-08-24T14:51:31.624Z,101750.09
2022-08-24T14:54:03.700Z,101752.22
2022-08-24T14:56:59.197Z,101750.94
2022-08-24T14:59:42.490Z,101750.94
2022-08-24T15:02:44.176Z,101739.25
2022-08-24T15:05:22.748Z,101729.28
2022-08-24T15:07:57.910Z,101731.56
2022-08-24T15:10:30.157Z,101728.91
2022-08-24T15:13:04.103Z,101731.13
2022-08-24T15:15:35.179Z,101722.38
2022-08-24T15:18:09.643Z,101723.00
2022-08-24T15:20:54.599Z,101714.44
2022-08-24T15:23:38.335Z,101725.84
2022-08-24T15:26:14.153Z,101711.34
2022-08-24T15:28:55.110Z,101720.69
2022-08-24T15:31:27.956Z,101717.34
2022-08-24T15:33:57.846Z,101719.78
2022-08-24T15:36:33.055Z,101715.59
2022-08-24T15:39:05.326Z,101716.03
2022-08-24T15:41:35.606Z,101712.47
2022-08-24T15:44:07.469Z,101710.56
2022-08-24T15:46:38.839Z,101719.69
2022-08-24T15:49:15.587Z,101720.84
2022-08-24T15:51:49.327Z,101723.81
2022-08-24T15:54:34.312Z,101728.50
2022-08-24T15:57:05.650Z,101726.81
2022-08-24T15:59:47.622Z,101722.38
2022-08-24T16:02:34.289Z,101731.91
2022-08-24T16:05:14.649Z,101721.31
2022-08-24T16:08:09.802Z,101725.91
2022-08-24T16:10:42.683Z,101729.72
2022-08-24T16:13:16.693Z,101728.09
2022-08-24T16:15:50.812Z,101715.75
2022-08-24T16:18:21.304Z,101721.25
2022-08-24T16:20:51.049Z,101718.69
2022-08-24T16:23:25.844Z,101718.94
2022-08-24T16:26:21.173Z,101718.09
2022-08-24T16:28:50.532Z,101721.31
2022-08-24T16:31:44.993Z,101720.47
2022-08-24T16:34:20.644Z,101714.94
2022-08-24T16:36:49.113Z,101714.09
2022-08-24T16:39:16.997Z,101722.78
2022-08-24T16:41:47.136Z,101720.28
2022-08-24T16:44:15.131Z,101728.72
2022-08-24T16:46:43.065Z,101723.44
2022-08-24T16:49:16.011Z,101723.63
2022-08-24T16:51:45.581Z,101730.72
2022-08-24T16:54:13.841Z,101737.75
2022-08-24T16:56:42.797Z,101730.53
2022-08-24T16:59:18.551Z,101725.72
2022-08-24T17:01:50.277Z,101737.75
2022-08-24T17:04:18.807Z,101727.56
2022-08-24T17:06:48.027Z,101733.69
2022-08-24T17:09:18.372Z,101735.22
2022-08-24T17:11:47.018Z,101729.91
2022-08-24T17:14:16.646Z,101729.81
2022-08-24T17:16:44.780Z,101738.56
2022-08-24T17:19:15.584Z,101738.50
2022-08-24T17:21:45.595Z,101732.38
2022-08-24T17:24:13.794Z,101754.53
2022-08-24T17:26:48.443Z,101735.72
2022-08-24T17:29:19.504Z,101747.19
2022-08-24T17:31:49.847Z,101749.78
2022-08-24T17:34:20.429Z,101749.72
2022-08-24T17:36:50.244Z,101752.88
2022-08-24T17:39:19.268Z,101761.19
2022-08-24T17:41:47.669Z,101754.38
2022-08-24T17:44:23.625Z,101764.59
2022-08-24T17:46:53.190Z,101768.31
2022-08-24T17:49:21.485Z,101771.44
2022-08-24T17:51:50.070Z,101764.81
2022-08-24T17:54:18.376Z,101770.38
2022-08-24T17:56:48.839Z,101778.13
2022-08-24T17:59:23.540Z,101783.19
2022-08-24T18:01:54.870Z,101787.78
2022-08-24T18:04:27.631Z,101789.13
2022-08-24T18:06:56.794Z,101788.72
2022-08-24T18:09:30.900Z,101791.34
2022-08-24T18:12:03.479Z,101792.72
2022-08-24T18:14:32.635Z,101797.34
2022-08-24T18:17:05.351Z,101801.72
2022-08-24T18:19:34.962Z,101807.00
2022-08-24T18:22:03.930Z,101804.81
2022-08-24T18:24:32.767Z,101815.09
2022-08-24T18:27:01.714Z,101811.94
2022-08-24T18:29:31.376Z,101817.63
2022-08-24T18:32:03.814Z,101824.06
2022-08-24T18:34:31.942Z,101820.69
2022-08-24T18:36:59.825Z,101828.91
2022-08-24T18:39:27.867Z,101827.13
2022-08-24T18:41:58.753Z,101827.38
2022-08-24T18:44:31.647Z,101829.97
2022-08-24T18:47:00.268Z,101837.09
2022-08-24T18:49:30.197Z,101841.16
2022-08-24T18:51:59.125Z,101840.97
2022-08-24T18:54:32.588Z,101840.72
2022-08-24T18:57:00.442Z,101848.88
2022-08-24T18:59:28.444Z,101850.66
2022-08-24T19:02:15.223Z,101852.91
2022-08-24T19:04:47.279Z,101859.09
2022-08-24T19:07:15.620Z,101860.34
2022-08-24T19:09:43.794Z,101854.69
2022-08-24T19:12:12.143Z,101863.19
2022-08-24T19:14:43.410Z,101865.63
2022-08-24T19:17:14.742Z,101851.28
2022-08-24T19:19:45.743Z,101849.00
2022-08-24T19:22:14.447Z,101856.69
2022-08-24T19:24:43.633Z,101852.97
2022-08-24T19:27:11.575Z,101848.44
2022-08-24T19:29:55.275Z,101851.44
2022-08-24T19:32:29.371Z,101855.59
2022-08-24T19:35:00.379Z,101860.44
2022-08-24T19:37:28.364Z,101855.16
2022-08-24T19:39:57.585Z,101853.66
2022-08-24T19:42:27.376Z,101848.81
2022-08-24T19:45:13.003Z,101852.38
2022-08-24T19:47:41.101Z,101855.69
2022-08-24T19:50:11.954Z,101852.75
2022-08-24T19:52:40.683Z,101855.69
2022-08-24T19:55:10.697Z,101849.50
2022-08-24T19:57:51.337Z,101855.31
2022-08-24T20:00:29.243Z,101853.91
2022-08-24T20:02:58.495Z,101855.47
2022-08-24T20:05:29.372Z,101866.41
2022-08-24T20:07:57.949Z,101863.69
2022-08-24T20:10:29.858Z,101871.13
2022-08-24T20:12:57.793Z,101865.19
2022-08-24T20:15:26.297Z,101865.34
2022-08-24T20:17:57.517Z,101875.03
2022-08-24T20:20:28.809Z,101869.84
2022-08-24T20:22:57.132Z,101876.97
2022-08-24T20:25:25.077Z,101871.88
2022-08-24T20:28:06.854Z,101872.09
2022-08-24T20:30:42.953Z,101867.44
2022-08-24T20:33:15.529Z,101870.00
2022-08-24T20:35:45.761Z,101874.44
2022-08-24T20:38:16.800Z,101870.41
2022-08-24T20:40:44.894Z,101876.31
2022-08-24T20:43:12.968Z,101878.13
2022-08-24T20:45:41.331Z,101878.41
2022-08-24T20:48:12.014Z,101877.34
2022-08-24T20:50:43.380Z,101879.75
2022-08-24T20:53:14.556Z,101887.38
2022-08-24T20:55:43.140Z,101882.31
2022-08-24T20:58:11.786Z,101881.81
2022-08-24T21:00:41.034Z,101885.81
2022-08-24T21:03:09.037Z,101882.56
2022-08-24T21:05:37.176Z,101873.75
2022-08-24T21:08:06.206Z,101876.06
2022-08-24T21:10:35.503Z,101882.09
2022-08-24T21:13:05.318Z,101871.56
2022-08-24T21:15:34.373Z,101867.28
2022-08-24T21:18:02.965Z,101869.91
2022-08-24T21:20:31.471Z,101874.22
2022-08-24T21:22:59.408Z,101881.94
2022-08-24T21:25:27.448Z,101878.19
2022-08-24T21:28:00.162Z,101876.22
2022-08-24T21:30:28.484Z,101877.94
2022-08-24T21:33:14.384Z,101875.78
2022-08-24T21:35:42.745Z,101877.47
2022-08-24T21:38:12.169Z,101876.97
2022-08-24T21:40:40.302Z,101882.66
2022-08-24T21:43:14.873Z,101880.84
2022-08-24T21:45:45.853Z,101884.25
2022-08-24T21:48:14.496Z,101883.53
2022-08-24T21:50:42.461Z,101885.97
2022-08-24T21:53:10.498Z,101895.03
2022-08-24T21:55:40.497Z,101887.38
2022-08-24T21:58:10.321Z,101896.00
2022-08-24T22:00:39.049Z,101894.00
2022-08-24T22:03:08.551Z,101891.94
2022-08-24T22:05:37.335Z,101886.59
2022-08-24T22:08:05.898Z,101893.81
2022-08-24T22:10:33.952Z,101891.28
2022-08-24T22:13:04.336Z,101886.84
2022-08-24T22:15:34.060Z,101885.97
2022-08-24T22:18:02.362Z,101879.88
2022-08-24T22:20:30.522Z,101876.47
2022-08-24T22:22:59.294Z,101876.41
2022-08-24T22:25:27.343Z,101880.91
2022-08-24T22:27:55.245Z,101875.56
2022-08-24T22:30:23.272Z,101876.59
2022-08-24T22:32:52.695Z,101887.28
2022-08-24T22:35:20.884Z,101876.38
2022-08-24T22:37:48.828Z,101876.69
2022-08-24T22:40:17.382Z,101885.56
2022-08-24T22:42:46.941Z,101884.53
2022-08-24T22:45:15.648Z,101883.72
2022-08-24T22:47:43.628Z,101878.44
2022-08-24T22:50:13.050Z,101880.94
2022-08-24T22:52:41.005Z,101882.00
2022-08-24T22:55:10.162Z,101872.47
2022-08-24T22:57:38.114Z,101876.19
2022-08-24T23:00:08.823Z,101877.22
2022-08-24T23:02:37.418Z,101876.72
2022-08-24T23:05:06.205Z,101873.34
2022-08-24T23:07:35.586Z,101883.03
2022-08-24T23:10:03.892Z,101871.16
2022-08-24T23:12:32.259Z,101887.16
2022-08-24T23:15:00.347Z,101878.66
2022-08-24T23:17:28.250Z,101869.97
2022-08-24T23:20:01.276Z,101869.63
2022-08-24T23:22:31.159Z,101869.44
2022-08-24T23:25:01.385Z,101871.00
2022-08-24T23:27:37.860Z,101860.75
2022-08-24T23:30:11.060Z,101861.13
2022-08-24T23:32:39.950Z,101857.38
2022-08-24T23:35:08.616Z,101863.50
2022-08-24T23:37:36.629Z,101865.03
2022-08-24T23:40:07.323Z,101863.50
2022-08-24T23:42:35.445Z,101859.94
2022-08-24T23:45:03.458Z,101852.06
2022-08-24T23:47:35.793Z,101848.66
2022-08-24T23:50:06.886Z,101855.66
2022-08-24T23:52:39.634Z,101850.38
2022-08-24T23:55:21.229Z,101852.09
2022-08-24T23:57:51.097Z,101847.66
